KDNL

Daniel Field Airport

Augusta, Georgia, USA
METAR KDNL 172053Z AUTO 34004KT 10SM OVC036 15/02 A3022 RMK AO2 SLP232 T01500017 55012
Observed Flight Rules
Dec-17 @ 20:53 UTC (40 minutes ago) Visual Flight Rules
Wind Visibility Clouds
340° at 4 knots 10 miles
  • Overcast at 3,600' AGL
Temperatures Readings
Current 15°C / 59°F
Dewpoint 2°C / 36°F
Humidity 42%
Altimeter 30.22" Hg
Pressure 1023.2 hPa
Elevation 130
METAR KDNL 172053Z AUTO 34004KT 10SM OVC036 15/02 A3022 RMK AO2 SLP232 T01500017 55012
Observed Flight Rules
Dec-17 @ 20:53 UTC
(40 minutes ago)
VFR
Wind Visibility
340° at 4 knots 10 miles
Clouds
  • Overcast at 3,600' AGL
Temperature Dewpoint
15°C / 59°F 2°C / 36°F
Humidity Altimeter Pressure
42% 30.22" Hg 1023.2 hPa